< < Back
Terminal Aerodrome Forecast


Current Version              Previous Versions:   1  2  3  4  5  6  7  8  9  

Terminal Aerodrome Forecast

691
FTUS42 KTAE 250500
TAFVLD
TAF
KVLD 250520Z 2506/2606 VRB03KT P6SM SKC
     FM250900 00000KT 4SM BR SCT004
     FM251300 25005KT P6SM SCT050 SCT250
     FM251800 25008KT P6SM VCTS BKN050CB
     FM260000 21003KT P6SM BKN250=



Latest METAR

518
SAUS70 KWBC 250500 RRM
MTRVLD
METAR KVLD 250453Z AUTO VRB03KT 10SM CLR 27/23 A3001 RMK AO2 SLP166
T02670228 403560228


USA.gov is the U.S. government's official web portal to all federal, state and local government web resources and services.